Terminal Aerodrome Forecast
Issued by NWS Mt. Holly, NJ

Home | Current Version | Previous Version | Text Only | Print | Product List | Glossary On
Versions: 1 2 3 4 5 6 7 8 9 10 11 12 13 14 15 16 17 18 19 20 21 22 23 24 25 26 27 28 29 30 31 32 33 34 35 36 37 38 39 40 41 42
000
FTAK31 PANC 191146
TAFABE
TAF
PABE 191146Z 1912/2012 14015KT P6SM BKN070
     FM191600 15017KT P6SM OVC050 WS020/18050KT
     FM200000 17018G27KT 4SM -RASN SCT009 OVC015 WS020/19050KT
     FM200300 18020G27KT 2SM -SN BKN007 OVC015
     FM200600 20012KT P6SM BKN010=

USA.gov is the U.S. government's official web portal to all federal, state and local government web resources and services.